createdAt,value
2019-05-09T00:01:03.829Z,11.00
2019-05-09T00:03:30.352Z,11.00
2019-05-09T00:05:56.675Z,11.10
2019-05-09T00:08:23.192Z,11.10
2019-05-09T00:10:49.510Z,11.10
2019-05-09T00:13:16.173Z,11.20
2019-05-09T00:15:43.696Z,11.00
2019-05-09T00:18:14.018Z,11.10
2019-05-09T00:20:43.465Z,11.20
2019-05-09T00:23:09.745Z,11.10
2019-05-09T00:25:36.084Z,11.00
2019-05-09T00:28:04.069Z,10.80
2019-05-09T00:30:48.850Z,10.80
2019-05-09T00:33:17.210Z,10.70
2019-05-09T00:35:44.264Z,10.60
2019-05-09T00:38:10.618Z,10.50
2019-05-09T00:40:36.926Z,10.50
2019-05-09T00:43:04.103Z,10.60
2019-05-09T00:45:33.373Z,10.70
2019-05-09T00:47:59.767Z,10.70
2019-05-09T00:50:29.280Z,10.80
2019-05-09T00:52:54.198Z,10.60
2019-05-09T00:55:20.549Z,10.70
2019-05-09T00:57:46.812Z,10.80
2019-05-09T01:00:15.431Z,10.80
2019-05-09T01:02:43.531Z,10.80
2019-05-09T01:05:10.155Z,10.80
2019-05-09T01:07:36.603Z,10.90
2019-05-09T01:10:04.850Z,11.00
2019-05-09T01:12:31.216Z,11.00
2019-05-09T01:14:57.484Z,11.00
2019-05-09T01:17:24.141Z,10.90
2019-05-09T01:19:50.704Z,10.80
2019-05-09T01:22:17.059Z,10.60
2019-05-09T01:24:44.311Z,10.50
2019-05-09T01:27:10.757Z,10.50
2019-05-09T01:29:37.005Z,10.50
2019-05-09T01:32:08.161Z,10.50
2019-05-09T01:34:35.903Z,10.70
2019-05-09T01:37:03.527Z,10.70
2019-05-09T01:39:30.101Z,10.70
2019-05-09T01:41:56.410Z,10.80
2019-05-09T01:44:23.989Z,10.80
2019-05-09T01:46:50.524Z,10.90
2019-05-09T01:49:18.651Z,11.00
2019-05-09T01:51:44.949Z,11.10
2019-05-09T01:54:13.198Z,11.20
2019-05-09T01:56:39.693Z,11.30
2019-05-09T01:59:05.944Z,11.00
2019-05-09T02:01:34.397Z,10.90
2019-05-09T02:04:00.782Z,10.80
2019-05-09T02:06:27.651Z,10.90
2019-05-09T02:08:54.606Z,11.00
2019-05-09T02:11:23.513Z,11.00
2019-05-09T02:13:49.257Z,11.10
2019-05-09T02:16:34.320Z,11.10
2019-05-09T02:19:13.613Z,11.00
2019-05-09T02:21:39.770Z,11.00
2019-05-09T02:24:06.035Z,10.90
2019-05-09T02:26:33.495Z,11.00
2019-05-09T02:28:59.905Z,10.90
2019-05-09T02:31:26.321Z,11.00
2019-05-09T02:33:54.165Z,11.00
2019-05-09T02:36:20.627Z,11.10
2019-05-09T02:38:48.759Z,11.00
2019-05-09T02:41:15.245Z,10.80
2019-05-09T02:43:41.494Z,10.80
2019-05-09T02:46:12.714Z,10.80
2019-05-09T02:48:39.075Z,10.90
2019-05-09T02:51:05.346Z,10.90
2019-05-09T02:53:31.679Z,10.90
2019-05-09T02:55:58.650Z,10.60
2019-05-09T02:58:28.176Z,10.50
2019-05-09T03:01:02.590Z,10.40
2019-05-09T03:03:33.468Z,10.40
2019-05-09T03:05:59.994Z,10.30
2019-05-09T03:08:29.366Z,10.30
2019-05-09T03:10:54.672Z,10.30
2019-05-09T03:13:21.147Z,10.30
2019-05-09T03:15:49.505Z,10.30
2019-05-09T03:18:17.714Z,10.10
2019-05-09T03:20:48.954Z,10.20
2019-05-09T03:23:13.870Z,10.40
2019-05-09T03:25:41.029Z,10.20
2019-05-09T03:28:09.906Z,10.30
2019-05-09T03:30:39.655Z,10.40
2019-05-09T03:33:09.955Z,10.40
2019-05-09T03:35:34.368Z,10.50
2019-05-09T03:38:08.216Z,10.30
2019-05-09T03:40:37.722Z,10.30
2019-05-09T03:43:05.036Z,10.40
2019-05-09T03:45:33.591Z,10.40
2019-05-09T03:48:04.753Z,10.30
2019-05-09T03:50:30.984Z,10.10
2019-05-09T03:52:57.967Z,10.00
2019-05-09T03:55:44.287Z,10.00
2019-05-09T03:58:15.130Z,10.10
2019-05-09T04:00:41.461Z,9.90
2019-05-09T04:03:08.248Z,9.80
2019-05-09T04:05:34.692Z,9.80
2019-05-09T04:08:18.264Z,9.80
2019-05-09T04:10:47.039Z,9.90
2019-05-09T04:13:35.398Z,9.90
2019-05-09T04:16:01.881Z,10.00
2019-05-09T04:18:28.137Z,10.00
2019-05-09T04:20:54.360Z,10.00
2019-05-09T04:23:20.562Z,10.20
2019-05-09T04:25:51.795Z,10.20
2019-05-09T04:28:18.175Z,10.30
2019-05-09T04:30:44.487Z,10.30
2019-05-09T04:33:10.708Z,10.30
2019-05-09T04:35:38.269Z,10.20
2019-05-09T04:38:04.975Z,10.30
2019-05-09T04:40:32.156Z,10.50
2019-05-09T04:43:10.973Z,10.70
2019-05-09T04:45:38.800Z,10.80
2019-05-09T04:48:02.502Z,10.90
2019-05-09T04:50:28.744Z,10.80
2019-05-09T04:52:55.043Z,10.70
2019-05-09T04:55:23.090Z,10.50
2019-05-09T04:57:49.380Z,10.40
2019-05-09T05:00:18.431Z,10.40
2019-05-09T05:02:48.476Z,10.40
2019-05-09T05:05:14.892Z,10.30
2019-05-09T05:07:41.141Z,10.40
2019-05-09T05:10:09.007Z,10.30
2019-05-09T05:12:35.429Z,10.30
2019-05-09T05:15:03.406Z,10.20
2019-05-09T05:17:30.700Z,10.20
2019-05-09T05:19:58.142Z,10.30
2019-05-09T05:22:28.391Z,10.40
2019-05-09T05:24:59.474Z,10.30
2019-05-09T05:27:24.436Z,10.30
2019-05-09T05:29:50.828Z,10.30
2019-05-09T05:32:28.290Z,10.30
2019-05-09T05:34:59.516Z,10.30
2019-05-09T05:37:28.011Z,10.40
2019-05-09T05:39:53.816Z,10.40
2019-05-09T05:42:22.208Z,10.50
2019-05-09T05:44:48.253Z,10.50
2019-05-09T05:47:18.011Z,10.60
2019-05-09T05:49:44.440Z,10.70
2019-05-09T05:52:10.678Z,10.60
2019-05-09T05:54:39.194Z,10.60
2019-05-09T05:57:05.109Z,10.70
2019-05-09T05:59:31.398Z,10.70
2019-05-09T06:01:58.537Z,10.70
2019-05-09T06:04:24.800Z,10.70
2019-05-09T06:06:51.104Z,10.80
2019-05-09T06:09:19.016Z,10.70
2019-05-09T06:11:45.556Z,10.80
2019-05-09T06:14:12.076Z,10.70
2019-05-09T06:16:38.589Z,10.60
2019-05-09T06:19:04.983Z,10.60
2019-05-09T06:21:31.253Z,10.70
2019-05-09T06:23:58.395Z,10.80
2019-05-09T06:26:24.976Z,10.70
2019-05-09T06:28:51.359Z,10.60
2019-05-09T06:31:17.992Z,10.60
2019-05-09T06:33:47.265Z,10.60
2019-05-09T06:36:12.572Z,10.50
2019-05-09T06:38:38.899Z,10.50
2019-05-09T06:41:05.395Z,10.70
2019-05-09T06:43:42.555Z,10.70
2019-05-09T06:46:13.603Z,10.80
2019-05-09T06:48:41.067Z,10.80
2019-05-09T06:51:07.522Z,10.90
2019-05-09T06:53:34.049Z,11.10
2019-05-09T06:56:00.413Z,11.00
2019-05-09T06:58:33.803Z,11.00
2019-05-09T07:01:07.666Z,11.00
2019-05-09T07:03:38.844Z,11.10
2019-05-09T07:06:09.770Z,11.20
2019-05-09T07:08:38.112Z,11.20
2019-05-09T07:11:04.366Z,11.00
2019-05-09T07:13:30.740Z,11.00
2019-05-09T07:15:58.547Z,11.00
2019-05-09T07:18:32.465Z,10.80
2019-05-09T07:20:58.755Z,10.90
2019-05-09T07:23:25.013Z,11.00
2019-05-09T07:25:58.944Z,10.90
2019-05-09T07:28:25.195Z,10.80
2019-05-09T07:30:59.038Z,10.80
2019-05-09T07:33:27.828Z,11.00
2019-05-09T07:35:54.618Z,10.90
2019-05-09T07:38:30.964Z,11.00
2019-05-09T07:40:59.870Z,11.00
2019-05-09T07:43:28.198Z,11.00
2019-05-09T07:46:12.089Z,11.00
2019-05-09T07:48:40.368Z,11.10
2019-05-09T07:51:07.805Z,11.20
2019-05-09T07:53:34.499Z,11.20
2019-05-09T07:56:01.038Z,11.30
2019-05-09T07:58:28.381Z,11.30
2019-05-09T08:00:58.224Z,11.30
2019-05-09T08:03:22.921Z,11.40
2019-05-09T08:05:49.276Z,11.40
2019-05-09T08:08:18.320Z,11.40
2019-05-09T08:10:44.349Z,11.40
2019-05-09T08:13:11.947Z,11.40
2019-05-09T08:15:38.570Z,11.40
2019-05-09T08:18:05.096Z,11.30
2019-05-09T08:20:31.350Z,11.40
2019-05-09T08:23:01.572Z,11.40
2019-05-09T08:25:27.723Z,11.30
2019-05-09T08:27:53.900Z,11.40
2019-05-09T08:30:20.457Z,11.40
2019-05-09T08:32:48.262Z,11.40
2019-05-09T08:35:14.937Z,11.50
2019-05-09T08:37:41.541Z,11.60
2019-05-09T08:40:08.454Z,11.70
2019-05-09T08:42:34.808Z,11.70
2019-05-09T08:45:02.820Z,11.90
2019-05-09T08:47:29.185Z,11.90
2019-05-09T08:49:58.746Z,11.90
2019-05-09T08:52:25.454Z,11.90
2019-05-09T08:54:57.874Z,11.90
2019-05-09T08:57:24.411Z,11.80
2019-05-09T08:59:51.156Z,11.80
2019-05-09T09:02:21.836Z,11.80
2019-05-09T09:04:48.834Z,11.90
2019-05-09T09:07:14.876Z,11.90
2019-05-09T09:09:41.419Z,12.00
2019-05-09T09:12:23.075Z,12.10
2019-05-09T09:14:38.309Z,12.20
2019-05-09T09:17:04.209Z,12.30
2019-05-09T09:19:30.494Z,12.50
2019-05-09T09:22:00.213Z,12.70
2019-05-09T09:24:25.000Z,12.90
2019-05-09T09:26:51.234Z,13.10
2019-05-09T09:29:18.946Z,13.20
2019-05-09T09:31:48.181Z,13.20
2019-05-09T09:34:14.123Z,13.10
2019-05-09T09:36:40.446Z,13.60
2019-05-09T09:39:08.008Z,13.50
2019-05-09T09:41:34.766Z,13.40
2019-05-09T09:44:04.651Z,13.20
2019-05-09T09:46:31.058Z,13.00
2019-05-09T09:48:58.594Z,13.00
2019-05-09T09:51:27.463Z,13.20
2019-05-09T09:53:53.559Z,13.10
2019-05-09T09:56:22.390Z,13.10
2019-05-09T09:58:52.888Z,13.50
2019-05-09T10:01:28.816Z,13.80
2019-05-09T10:03:58.140Z,14.10
2019-05-09T10:06:28.495Z,14.50
2019-05-09T10:08:54.921Z,14.40
2019-05-09T10:11:23.658Z,13.90
2019-05-09T10:13:51.941Z,13.90
2019-05-09T10:16:38.848Z,14.30
2019-05-09T10:19:18.937Z,14.70
2019-05-09T10:21:48.557Z,15.00
2019-05-09T10:24:17.363Z,14.70
2019-05-09T10:27:01.963Z,14.40
2019-05-09T10:29:28.229Z,14.50
2019-05-09T10:31:54.485Z,14.40
2019-05-09T10:34:21.137Z,14.30
2019-05-09T10:36:47.652Z,14.50
2019-05-09T10:39:13.965Z,14.50
2019-05-09T10:41:40.210Z,14.60
2019-05-09T10:44:14.191Z,14.70
2019-05-09T10:46:57.136Z,14.70
2019-05-09T10:49:19.679Z,14.50
2019-05-09T10:51:48.346Z,14.40
2019-05-09T10:54:14.235Z,14.30
2019-05-09T10:56:40.632Z,14.30
2019-05-09T10:59:07.795Z,14.50
2019-05-09T11:01:34.383Z,14.60
2019-05-09T11:04:00.714Z,14.30
2019-05-09T11:06:28.693Z,14.20
2019-05-09T11:08:55.344Z,14.30
2019-05-09T11:11:24.606Z,14.30
2019-05-09T11:13:50.952Z,14.50
2019-05-09T11:16:18.429Z,14.80
2019-05-09T11:18:44.988Z,15.00
2019-05-09T11:21:11.550Z,15.30
2019-05-09T11:23:39.329Z,15.60
2019-05-09T11:26:05.765Z,15.40
2019-05-09T11:28:33.754Z,15.20
2019-05-09T11:31:00.148Z,15.20
2019-05-09T11:33:27.817Z,15.10
2019-05-09T11:35:54.509Z,15.30
2019-05-09T11:38:33.280Z,15.60
2019-05-09T11:40:48.885Z,15.80
2019-05-09T11:43:17.548Z,15.80
2019-05-09T11:45:43.403Z,15.70
2019-05-09T11:48:09.667Z,15.50
2019-05-09T11:50:38.669Z,15.50
2019-05-09T11:53:04.339Z,15.30
2019-05-09T11:55:36.410Z,15.40
2019-05-09T11:57:59.217Z,15.30
2019-05-09T12:00:25.822Z,15.60
2019-05-09T12:02:52.209Z,15.90
2019-05-09T12:05:19.288Z,15.90
2019-05-09T12:07:45.775Z,15.80
2019-05-09T12:10:12.225Z,16.20
2019-05-09T12:12:39.105Z,16.40
2019-05-09T12:15:08.553Z,16.90
2019-05-09T12:17:49.779Z,16.60
2019-05-09T12:20:12.425Z,16.60
2019-05-09T12:22:32.068Z,16.50
2019-05-09T12:24:59.273Z,16.40
2019-05-09T12:27:28.002Z,16.70
2019-05-09T12:29:54.279Z,17.10
2019-05-09T12:32:20.648Z,17.60
2019-05-09T12:34:48.011Z,17.50
2019-05-09T12:37:18.252Z,16.70
2019-05-09T12:39:44.931Z,16.40
2019-05-09T12:42:11.280Z,16.70
2019-05-09T12:44:37.634Z,16.90
2019-05-09T12:47:03.868Z,16.60
2019-05-09T12:49:30.140Z,16.80
2019-05-09T12:51:58.170Z,17.20
2019-05-09T12:54:24.645Z,17.60
2019-05-09T12:56:50.955Z,17.70
2019-05-09T12:59:18.736Z,17.20
2019-05-09T13:01:45.239Z,17.00
2019-05-09T13:04:11.612Z,17.00
2019-05-09T13:06:38.177Z,17.10
2019-05-09T13:09:05.488Z,17.00
2019-05-09T13:11:31.876Z,16.80
2019-05-09T13:13:58.153Z,16.80
2019-05-09T13:16:42.592Z,16.80
2019-05-09T13:18:59.214Z,16.90
2019-05-09T13:21:27.847Z,17.10
2019-05-09T13:23:53.145Z,17.40
2019-05-09T13:26:19.992Z,17.40
2019-05-09T13:28:48.731Z,17.40
2019-05-09T13:31:14.638Z,17.40
2019-05-09T13:33:41.285Z,17.40
2019-05-09T13:36:09.223Z,17.50
2019-05-09T13:38:37.791Z,17.50
2019-05-09T13:41:03.845Z,17.40
2019-05-09T13:43:30.071Z,17.50
2019-05-09T13:45:58.680Z,17.70
2019-05-09T13:48:46.815Z,17.80
2019-05-09T13:50:53.888Z,17.90
2019-05-09T13:53:22.193Z,17.90
2019-05-09T13:55:48.470Z,17.90
2019-05-09T13:58:14.770Z,17.90
2019-05-09T14:00:55.770Z,17.80
2019-05-09T14:03:09.418Z,17.70
2019-05-09T14:05:35.762Z,17.60
2019-05-09T14:08:03.662Z,17.60
2019-05-09T14:10:30.057Z,17.60
2019-05-09T14:13:07.055Z,17.60
2019-05-09T14:15:24.788Z,17.10
2019-05-09T14:17:53.874Z,16.90
2019-05-09T14:20:19.504Z,16.80
2019-05-09T14:22:45.827Z,17.00
2019-05-09T14:25:12.247Z,16.80
2019-05-09T14:27:38.591Z,16.70
2019-05-09T14:30:07.856Z,16.90
2019-05-09T14:32:34.964Z,17.20
2019-05-09T14:35:01.427Z,17.30
2019-05-09T14:37:28.395Z,17.50
2019-05-09T14:39:58.802Z,17.50
2019-05-09T14:42:23.456Z,17.20
2019-05-09T14:44:49.861Z,17.00
2019-05-09T14:47:17.701Z,17.20
2019-05-09T14:49:44.828Z,17.30
2019-05-09T14:52:11.324Z,17.50
2019-05-09T14:54:39.159Z,17.60
2019-05-09T14:57:05.699Z,17.50
2019-05-09T14:59:31.990Z,17.50
2019-05-09T15:01:59.099Z,17.70
2019-05-09T15:04:27.815Z,17.70
2019-05-09T15:06:54.083Z,17.60
2019-05-09T15:09:20.412Z,17.70
2019-05-09T15:11:48.452Z,17.70
2019-05-09T15:14:14.793Z,17.40
2019-05-09T15:16:41.123Z,17.70
2019-05-09T15:19:08.419Z,17.70
2019-05-09T15:21:37.971Z,17.90
2019-05-09T15:24:03.489Z,18.10
2019-05-09T15:26:33.448Z,18.30
2019-05-09T15:28:59.745Z,18.40
2019-05-09T15:31:28.626Z,18.40
2019-05-09T15:33:54.787Z,18.00
2019-05-09T15:36:21.078Z,17.70
2019-05-09T15:38:48.590Z,17.70
2019-05-09T15:41:15.458Z,17.90
2019-05-09T15:43:41.763Z,18.30
2019-05-09T15:46:12.770Z,18.60
2019-05-09T15:48:39.371Z,18.80
2019-05-09T15:51:07.570Z,18.90
2019-05-09T15:53:34.060Z,18.90
2019-05-09T15:56:00.859Z,18.50
2019-05-09T15:58:28.765Z,18.00
2019-05-09T16:00:55.450Z,17.80
2019-05-09T16:03:22.006Z,17.90
2019-05-09T16:05:48.309Z,18.10
2019-05-09T16:08:15.061Z,18.30
2019-05-09T16:10:41.407Z,18.20
2019-05-09T16:13:08.192Z,18.30
2019-05-09T16:15:34.731Z,18.20
2019-05-09T16:18:01.108Z,18.10
2019-05-09T16:20:36.918Z,18.30
2019-05-09T16:22:57.224Z,18.30
2019-05-09T16:25:23.835Z,18.30
2019-05-09T16:27:50.567Z,18.30
2019-05-09T16:30:17.231Z,18.30
2019-05-09T16:32:43.840Z,18.30
2019-05-09T16:35:10.316Z,18.30
2019-05-09T16:37:56.881Z,18.20
2019-05-09T16:40:05.440Z,18.10
2019-05-09T16:42:31.802Z,18.10
2019-05-09T16:44:59.311Z,18.10
2019-05-09T16:47:28.293Z,18.00
2019-05-09T16:49:53.969Z,18.00
2019-05-09T16:52:20.342Z,18.00
2019-05-09T16:54:50.168Z,18.00
2019-05-09T16:57:18.200Z,18.10
2019-05-09T16:59:47.842Z,18.10
2019-05-09T17:02:23.822Z,18.10
2019-05-09T17:04:42.439Z,18.10
2019-05-09T17:07:08.725Z,17.90
2019-05-09T17:09:38.837Z,17.90
2019-05-09T17:12:05.221Z,18.00
2019-05-09T17:14:31.445Z,17.90
2019-05-09T17:16:59.886Z,17.90
2019-05-09T17:19:28.311Z,17.90
2019-05-09T17:21:58.526Z,17.90
2019-05-09T17:24:24.940Z,17.90
2019-05-09T17:26:51.425Z,17.80
2019-05-09T17:29:18.493Z,17.80
2019-05-09T17:31:45.189Z,17.60
2019-05-09T17:34:11.533Z,17.50
2019-05-09T17:36:38.508Z,17.40
2019-05-09T17:39:07.812Z,17.40
2019-05-09T17:41:33.847Z,17.40
2019-05-09T17:44:00.281Z,17.40
2019-05-09T17:46:27.519Z,17.30
2019-05-09T17:48:54.093Z,17.40
2019-05-09T17:51:32.682Z,17.40
2019-05-09T17:53:51.879Z,17.20
2019-05-09T17:56:17.004Z,17.20
2019-05-09T17:58:43.347Z,17.20
2019-05-09T18:01:09.880Z,17.20
2019-05-09T18:03:38.418Z,17.30
2019-05-09T18:06:04.684Z,17.20
2019-05-09T18:08:31.042Z,17.20
2019-05-09T18:10:58.395Z,17.20
2019-05-09T18:13:24.960Z,17.10
2019-05-09T18:15:51.341Z,17.20
2019-05-09T18:18:18.479Z,17.10
2019-05-09T18:20:45.116Z,17.10
2019-05-09T18:23:11.622Z,17.10
2019-05-09T18:25:38.140Z,17.10
2019-05-09T18:28:04.687Z,17.10
2019-05-09T18:30:31.161Z,17.10
2019-05-09T18:33:08.158Z,17.00
2019-05-09T18:35:34.630Z,17.00
2019-05-09T18:38:01.036Z,17.00
2019-05-09T18:40:28.173Z,17.00
2019-05-09T18:42:54.793Z,16.90
2019-05-09T18:45:21.685Z,16.90
2019-05-09T18:47:48.268Z,16.90
2019-05-09T18:50:16.216Z,16.90
2019-05-09T18:52:42.597Z,16.80
2019-05-09T18:55:09.921Z,16.80
2019-05-09T18:57:36.470Z,16.80
2019-05-09T19:00:08.962Z,16.80
2019-05-09T19:02:35.974Z,16.80
2019-05-09T19:05:06.672Z,16.80
2019-05-09T19:07:33.178Z,16.70
2019-05-09T19:09:59.531Z,16.70
2019-05-09T19:12:25.882Z,16.70
2019-05-09T19:14:52.525Z,16.70
2019-05-09T19:17:21.395Z,16.60
2019-05-09T19:20:07.969Z,16.60
2019-05-09T19:22:34.252Z,16.60
2019-05-09T19:25:00.587Z,16.60
2019-05-09T19:27:26.891Z,16.60
2019-05-09T19:29:53.133Z,16.60
2019-05-09T19:32:19.651Z,16.50
2019-05-09T19:34:45.929Z,16.50
2019-05-09T19:37:14.533Z,16.50
2019-05-09T19:39:41.098Z,16.50
2019-05-09T19:42:07.374Z,16.40
2019-05-09T19:44:33.756Z,16.40
2019-05-09T19:47:01.712Z,16.40
2019-05-09T19:49:28.180Z,16.30
2019-05-09T19:51:54.573Z,16.30
2019-05-09T19:54:21.037Z,16.20
2019-05-09T19:56:47.481Z,16.20
2019-05-09T19:59:13.780Z,16.10
2019-05-09T20:01:40.038Z,16.10
2019-05-09T20:04:06.615Z,16.10
2019-05-09T20:06:32.980Z,16.10
2019-05-09T20:09:01.827Z,16.10
2019-05-09T20:11:33.546Z,16.00
2019-05-09T20:14:04.512Z,16.00
2019-05-09T20:16:44.792Z,15.90
2019-05-09T20:19:11.266Z,15.90
2019-05-09T20:21:37.628Z,15.90
2019-05-09T20:24:04.100Z,15.90
2019-05-09T20:26:30.534Z,15.90
2019-05-09T20:28:56.937Z,15.90
2019-05-09T20:31:23.174Z,15.80
2019-05-09T20:33:52.505Z,15.80
2019-05-09T20:36:18.954Z,15.80
2019-05-09T20:38:45.396Z,15.80
2019-05-09T20:41:11.724Z,15.80
2019-05-09T20:43:38.045Z,15.80
2019-05-09T20:46:04.411Z,15.80
2019-05-09T20:48:30.720Z,15.80
2019-05-09T20:50:57.109Z,15.80
2019-05-09T20:53:23.485Z,15.80
2019-05-09T20:55:49.879Z,15.80
2019-05-09T20:58:16.165Z,15.80
2019-05-09T21:00:42.448Z,15.80
2019-05-09T21:03:08.938Z,15.70
2019-05-09T21:05:35.372Z,15.70
2019-05-09T21:08:01.735Z,15.70
2019-05-09T21:10:28.113Z,15.70
2019-05-09T21:12:54.484Z,15.70
2019-05-09T21:15:20.883Z,15.70
2019-05-09T21:17:47.312Z,15.60
2019-05-09T21:20:13.926Z,15.60
2019-05-09T21:22:40.242Z,15.60
2019-05-09T21:25:06.887Z,15.50
2019-05-09T21:27:33.220Z,15.50
2019-05-09T21:29:59.520Z,15.40
2019-05-09T21:32:25.825Z,15.10
2019-05-09T21:34:52.170Z,14.90
2019-05-09T21:37:18.397Z,14.90
2019-05-09T21:39:44.645Z,14.90
2019-05-09T21:42:10.905Z,14.90
2019-05-09T21:44:37.169Z,14.80
2019-05-09T21:47:03.546Z,14.80
2019-05-09T21:49:29.947Z,14.70
2019-05-09T21:51:56.322Z,14.80
2019-05-09T21:54:22.651Z,14.90
2019-05-09T21:56:49.055Z,14.90
2019-05-09T21:59:15.438Z,14.90
2019-05-09T22:02:01.767Z,15.00
2019-05-09T22:04:28.161Z,14.80
2019-05-09T22:06:54.425Z,14.90
2019-05-09T22:09:20.678Z,14.90
2019-05-09T22:11:46.999Z,15.00
2019-05-09T22:14:15.224Z,15.10
2019-05-09T22:16:42.599Z,15.20
2019-05-09T22:19:08.834Z,15.20
2019-05-09T22:21:35.116Z,15.20
2019-05-09T22:24:01.460Z,15.20
2019-05-09T22:26:27.912Z,15.20
2019-05-09T22:28:56.870Z,15.20
2019-05-09T22:31:23.157Z,15.20
2019-05-09T22:33:49.395Z,15.20
2019-05-09T22:36:15.892Z,15.20
2019-05-09T22:38:43.671Z,15.20
2019-05-09T22:41:10.293Z,15.10
2019-05-09T22:43:36.594Z,15.10
2019-05-09T22:46:02.943Z,15.10
2019-05-09T22:48:29.268Z,15.10
2019-05-09T22:50:55.602Z,15.10
2019-05-09T22:53:21.970Z,15.10
2019-05-09T22:55:48.224Z,15.00
2019-05-09T22:58:14.486Z,14.90
2019-05-09T23:00:41.067Z,14.60
2019-05-09T23:03:07.422Z,14.60
2019-05-09T23:05:33.707Z,14.60
2019-05-09T23:07:59.939Z,14.60
2019-05-09T23:10:26.316Z,14.70
2019-05-09T23:12:52.822Z,14.80
2019-05-09T23:15:19.401Z,14.80
2019-05-09T23:17:45.757Z,14.70
2019-05-09T23:20:17.176Z,14.60
2019-05-09T23:22:46.095Z,14.60
2019-05-09T23:25:12.394Z,14.60
2019-05-09T23:27:38.644Z,14.60
2019-05-09T23:30:05.894Z,14.60
2019-05-09T23:32:34.159Z,14.50
2019-05-09T23:35:01.024Z,14.50
2019-05-09T23:37:27.353Z,14.50
2019-05-09T23:39:56.860Z,14.40
2019-05-09T23:42:23.297Z,14.10
2019-05-09T23:44:49.736Z,14.10
2019-05-09T23:47:16.154Z,14.10
2019-05-09T23:49:42.491Z,14.10
2019-05-09T23:52:08.942Z,14.00
2019-05-09T23:54:53.801Z,14.00
2019-05-09T23:57:38.768Z,14.00
